sensor_id;sensor_type;location;lat;lon;timestamp;temperature;humidity
46085;DHT22;31823;47.032;8.310;2023-01-01T00:01:21;6.30;99.90
46085;DHT22;31823;47.032;8.310;2023-01-01T00:03:52;6.30;99.90
46085;DHT22;31823;47.032;8.310;2023-01-01T00:06:18;6.30;99.90
46085;DHT22;31823;47.032;8.310;2023-01-01T00:08:44;6.40;99.90
46085;DHT22;31823;47.032;8.310;2023-01-01T00:11:10;6.40;99.90
46085;DHT22;31823;47.032;8.310;2023-01-01T00:13:39;6.40;99.90
46085;DHT22;31823;47.032;8.310;2023-01-01T00:16:12;6.50;99.90
46085;DHT22;31823;47.032;8.310;2023-01-01T00:18:41;6.50;99.90
46085;DHT22;31823;47.032;8.310;2023-01-01T00:21:12;6.50;99.90
46085;DHT22;31823;47.032;8.310;2023-01-01T00:23:38;6.20;99.90
46085;DHT22;31823;47.032;8.310;2023-01-01T00:26:15;6.00;99.90
46085;DHT22;31823;47.032;8.310;2023-01-01T00:28:42;6.00;99.90
46085;DHT22;31823;47.032;8.310;2023-01-01T00:31:16;6.00;99.90
46085;DHT22;31823;47.032;8.310;2023-01-01T00:33:43;6.00;99.90
46085;DHT22;31823;47.032;8.310;2023-01-01T00:36:11;6.00;99.90
46085;DHT22;31823;47.032;8.310;2023-01-01T00:38:37;6.00;99.90
46085;DHT22;31823;47.032;8.310;2023-01-01T00:41:03;6.10;99.90
46085;DHT22;31823;47.032;8.310;2023-01-01T00:43:29;6.20;99.90
46085;DHT22;31823;47.032;8.310;2023-01-01T00:45:55;6.10;99.90
46085;DHT22;31823;47.032;8.310;2023-01-01T00:48:20;6.20;99.90
46085;DHT22;31823;47.032;8.310;2023-01-01T00:50:47;6.30;99.90
46085;DHT22;31823;47.032;8.310;2023-01-01T00:53:13;6.30;99.90
46085;DHT22;31823;47.032;8.310;2023-01-01T00:55:39;6.40;99.90
46085;DHT22;31823;47.032;8.310;2023-01-01T00:58:05;6.40;99.90
46085;DHT22;31823;47.032;8.310;2023-01-01T01:00:31;6.30;99.90
46085;DHT22;31823;47.032;8.310;2023-01-01T01:02:57;6.40;99.90
46085;DHT22;31823;47.032;8.310;2023-01-01T01:05:22;6.40;99.90
46085;DHT22;31823;47.032;8.310;2023-01-01T01:07:48;6.40;99.90
46085;DHT22;31823;47.032;8.310;2023-01-01T01:10:13;6.40;99.90
46085;DHT22;31823;47.032;8.310;2023-01-01T01:12:39;6.50;99.90
46085;DHT22;31823;47.032;8.310;2023-01-01T01:15:05;6.40;99.90
46085;DHT22;31823;47.032;8.310;2023-01-01T01:17:31;6.40;99.90
46085;DHT22;31823;47.032;8.310;2023-01-01T01:19:57;6.40;99.90
46085;DHT22;31823;47.032;8.310;2023-01-01T01:22:22;6.40;99.90
46085;DHT22;31823;47.032;8.310;2023-01-01T01:24:48;6.60;99.90
46085;DHT22;31823;47.032;8.310;2023-01-01T01:27:14;6.50;99.90
46085;DHT22;31823;47.032;8.310;2023-01-01T01:29:39;6.50;99.90
46085;DHT22;31823;47.032;8.310;2023-01-01T01:32:05;6.40;99.90
46085;DHT22;31823;47.032;8.310;2023-01-01T01:34:30;6.20;99.90
46085;DHT22;31823;47.032;8.310;2023-01-01T01:36:56;6.20;99.90
46085;DHT22;31823;47.032;8.310;2023-01-01T01:39:22;6.20;99.90
46085;DHT22;31823;47.032;8.310;2023-01-01T01:41:47;6.20;99.90
46085;DHT22;31823;47.032;8.310;2023-01-01T01:47:14;5.70;99.90
46085;DHT22;31823;47.032;8.310;2023-01-01T01:49:40;5.60;99.90
46085;DHT22;31823;47.032;8.310;2023-01-01T01:52:07;5.60;99.90
46085;DHT22;31823;47.032;8.310;2023-01-01T01:54:33;5.60;99.90
46085;DHT22;31823;47.032;8.310;2023-01-01T01:57:03;5.70;99.90
46085;DHT22;31823;47.032;8.310;2023-01-01T01:59:32;5.90;99.90
46085;DHT22;31823;47.032;8.310;2023-01-01T02:01:58;6.10;99.90
46085;DHT22;31823;47.032;8.310;2023-01-01T02:04:24;6.10;99.90
46085;DHT22;31823;47.032;8.310;2023-01-01T02:06:51;5.90;99.90
46085;DHT22;31823;47.032;8.310;2023-01-01T02:09:17;5.80;99.90
46085;DHT22;31823;47.032;8.310;2023-01-01T02:11:43;5.80;99.90
46085;DHT22;31823;47.032;8.310;2023-01-01T02:14:08;5.70;99.90
46085;DHT22;31823;47.032;8.310;2023-01-01T02:16:48;5.90;99.90
46085;DHT22;31823;47.032;8.310;2023-01-01T02:25:55;5.60;99.90
46085;DHT22;31823;47.032;8.310;2023-01-01T02:31:10;5.90;99.90
46085;DHT22;31823;47.032;8.310;2023-01-01T02:33:39;6.00;99.90
46085;DHT22;31823;47.032;8.310;2023-01-01T02:36:08;5.80;99.90
46085;DHT22;31823;47.032;8.310;2023-01-01T02:38:42;5.80;99.90
46085;DHT22;31823;47.032;8.310;2023-01-01T02:41:30;5.90;99.90
46085;DHT22;31823;47.032;8.310;2023-01-01T02:43:57;5.80;99.90
46085;DHT22;31823;47.032;8.310;2023-01-01T02:46:30;5.90;99.90
46085;DHT22;31823;47.032;8.310;2023-01-01T02:48:56;5.50;99.90
46085;DHT22;31823;47.032;8.310;2023-01-01T02:56:39;5.30;99.90
46085;DHT22;31823;47.032;8.310;2023-01-01T03:07:23;5.60;99.90
46085;DHT22;31823;47.032;8.310;2023-01-01T03:10:21;5.70;99.90
46085;DHT22;31823;47.032;8.310;2023-01-01T03:15:57;5.60;99.90
46085;DHT22;31823;47.032;8.310;2023-01-01T03:18:33;5.60;99.90
46085;DHT22;31823;47.032;8.310;2023-01-01T03:21:03;5.60;99.90
46085;DHT22;31823;47.032;8.310;2023-01-01T03:23:34;5.70;99.90
46085;DHT22;31823;47.032;8.310;2023-01-01T03:26:05;5.80;99.90
46085;DHT22;31823;47.032;8.310;2023-01-01T03:28:35;5.70;99.90
46085;DHT22;31823;47.032;8.310;2023-01-01T03:31:02;5.70;99.90
46085;DHT22;31823;47.032;8.310;2023-01-01T03:38:28;5.50;99.90
46085;DHT22;31823;47.032;8.310;2023-01-01T03:41:01;5.40;99.90
46085;DHT22;31823;47.032;8.310;2023-01-01T03:43:50;5.00;99.90
46085;DHT22;31823;47.032;8.310;2023-01-01T03:46:22;5.00;99.90
46085;DHT22;31823;47.032;8.310;2023-01-01T03:48:49;5.00;99.90
46085;DHT22;31823;47.032;8.310;2023-01-01T03:56:52;5.20;99.90
46085;DHT22;31823;47.032;8.310;2023-01-01T03:59:29;5.30;99.90
46085;DHT22;31823;47.032;8.310;2023-01-01T04:02:00;5.20;99.90
46085;DHT22;31823;47.032;8.310;2023-01-01T04:04:27;5.20;99.90
46085;DHT22;31823;47.032;8.310;2023-01-01T04:06:53;5.20;99.90
46085;DHT22;31823;47.032;8.310;2023-01-01T04:09:30;5.30;99.90
46085;DHT22;31823;47.032;8.310;2023-01-01T04:11:58;5.30;99.90
46085;DHT22;31823;47.032;8.310;2023-01-01T04:14:39;5.30;99.90
46085;DHT22;31823;47.032;8.310;2023-01-01T04:17:07;5.20;99.90
46085;DHT22;31823;47.032;8.310;2023-01-01T04:19:33;5.20;99.90
46085;DHT22;31823;47.032;8.310;2023-01-01T04:21:59;5.10;99.90
46085;DHT22;31823;47.032;8.310;2023-01-01T04:24:25;5.10;99.90
46085;DHT22;31823;47.032;8.310;2023-01-01T04:26:52;5.30;99.90
46085;DHT22;31823;47.032;8.310;2023-01-01T04:29:18;5.20;99.90
46085;DHT22;31823;47.032;8.310;2023-01-01T04:31:45;5.20;99.90
46085;DHT22;31823;47.032;8.310;2023-01-01T04:34:10;5.30;99.90
46085;DHT22;31823;47.032;8.310;2023-01-01T04:36:36;5.30;99.90
46085;DHT22;31823;47.032;8.310;2023-01-01T04:39:02;5.30;99.90
46085;DHT22;31823;47.032;8.310;2023-01-01T04:41:28;5.40;99.90
46085;DHT22;31823;47.032;8.310;2023-01-01T04:43:54;5.40;99.90
46085;DHT22;31823;47.032;8.310;2023-01-01T04:46:21;5.40;99.90
46085;DHT22;31823;47.032;8.310;2023-01-01T04:48:47;5.40;99.90
46085;DHT22;31823;47.032;8.310;2023-01-01T04:51:14;5.40;99.90
46085;DHT22;31823;47.032;8.310;2023-01-01T04:53:40;5.40;99.90
46085;DHT22;31823;47.032;8.310;2023-01-01T04:56:14;5.30;99.90
46085;DHT22;31823;47.032;8.310;2023-01-01T04:58:40;5.30;99.90
46085;DHT22;31823;47.032;8.310;2023-01-01T05:01:07;5.40;99.90
46085;DHT22;31823;47.032;8.310;2023-01-01T05:03:38;5.30;99.90
46085;DHT22;31823;47.032;8.310;2023-01-01T05:06:09;5.10;99.90
46085;DHT22;31823;47.032;8.310;2023-01-01T05:08:38;5.20;99.90
46085;DHT22;31823;47.032;8.310;2023-01-01T05:11:12;5.20;99.90
46085;DHT22;31823;47.032;8.310;2023-01-01T05:13:44;5.30;99.90
46085;DHT22;31823;47.032;8.310;2023-01-01T05:16:12;5.30;99.90
46085;DHT22;31823;47.032;8.310;2023-01-01T05:18:39;5.40;99.90
46085;DHT22;31823;47.032;8.310;2023-01-01T05:21:07;5.40;99.90
46085;DHT22;31823;47.032;8.310;2023-01-01T05:23:33;5.50;99.90
46085;DHT22;31823;47.032;8.310;2023-01-01T05:25:59;5.50;99.90
46085;DHT22;31823;47.032;8.310;2023-01-01T05:28:25;5.50;99.90
46085;DHT22;31823;47.032;8.310;2023-01-01T05:30:51;5.50;99.90
46085;DHT22;31823;47.032;8.310;2023-01-01T05:33:17;5.50;99.90
46085;DHT22;31823;47.032;8.310;2023-01-01T05:35:43;5.50;99.90
46085;DHT22;31823;47.032;8.310;2023-01-01T05:38:09;5.40;99.90
46085;DHT22;31823;47.032;8.310;2023-01-01T05:40:37;5.10;99.90
46085;DHT22;31823;47.032;8.310;2023-01-01T05:43:04;5.00;99.90
46085;DHT22;31823;47.032;8.310;2023-01-01T05:45:30;4.90;99.90
46085;DHT22;31823;47.032;8.310;2023-01-01T05:47:55;4.90;99.90
46085;DHT22;31823;47.032;8.310;2023-01-01T05:50:21;5.00;99.90
46085;DHT22;31823;47.032;8.310;2023-01-01T05:52:46;5.00;99.90
46085;DHT22;31823;47.032;8.310;2023-01-01T05:55:12;5.10;99.90
46085;DHT22;31823;47.032;8.310;2023-01-01T05:57:38;5.00;99.90
46085;DHT22;31823;47.032;8.310;2023-01-01T06:00:03;5.00;99.90
46085;DHT22;31823;47.032;8.310;2023-01-01T06:02:30;5.00;99.90
46085;DHT22;31823;47.032;8.310;2023-01-01T06:04:55;5.00;99.90
46085;DHT22;31823;47.032;8.310;2023-01-01T06:07:21;5.00;99.90
46085;DHT22;31823;47.032;8.310;2023-01-01T06:09:46;5.00;99.90
46085;DHT22;31823;47.032;8.310;2023-01-01T06:12:12;5.10;99.90
46085;DHT22;31823;47.032;8.310;2023-01-01T06:14:37;4.80;99.90
46085;DHT22;31823;47.032;8.310;2023-01-01T06:17:03;4.80;99.90
46085;DHT22;31823;47.032;8.310;2023-01-01T06:19:29;4.80;99.90
46085;DHT22;31823;47.032;8.310;2023-01-01T06:21:54;4.80;99.90
46085;DHT22;31823;47.032;8.310;2023-01-01T06:24:20;4.90;99.90
46085;DHT22;31823;47.032;8.310;2023-01-01T06:26:45;4.90;99.90
46085;DHT22;31823;47.032;8.310;2023-01-01T06:29:11;4.90;99.90
46085;DHT22;31823;47.032;8.310;2023-01-01T06:31:36;4.90;99.90
46085;DHT22;31823;47.032;8.310;2023-01-01T06:34:02;4.90;99.90
46085;DHT22;31823;47.032;8.310;2023-01-01T06:36:27;4.90;99.90
46085;DHT22;31823;47.032;8.310;2023-01-01T06:38:55;4.90;99.90
46085;DHT22;31823;47.032;8.310;2023-01-01T06:41:22;4.90;99.90
46085;DHT22;31823;47.032;8.310;2023-01-01T06:43:48;4.80;99.90
46085;DHT22;31823;47.032;8.310;2023-01-01T06:46:18;4.80;99.90
46085;DHT22;31823;47.032;8.310;2023-01-01T06:48:45;4.80;99.90
46085;DHT22;31823;47.032;8.310;2023-01-01T06:51:13;4.80;99.90
46085;DHT22;31823;47.032;8.310;2023-01-01T06:53:39;4.90;99.90
46085;DHT22;31823;47.032;8.310;2023-01-01T06:56:05;4.90;99.90
46085;DHT22;31823;47.032;8.310;2023-01-01T06:58:30;4.90;99.90
46085;DHT22;31823;47.032;8.310;2023-01-01T07:01:14;4.80;99.90
46085;DHT22;31823;47.032;8.310;2023-01-01T07:03:41;4.90;99.90
46085;DHT22;31823;47.032;8.310;2023-01-01T07:06:08;4.80;99.90
46085;DHT22;31823;47.032;8.310;2023-01-01T07:08:34;4.90;99.90
46085;DHT22;31823;47.032;8.310;2023-01-01T07:11:00;4.90;99.90
46085;DHT22;31823;47.032;8.310;2023-01-01T07:13:27;4.90;99.90
46085;DHT22;31823;47.032;8.310;2023-01-01T07:15:53;5.10;99.90
46085;DHT22;31823;47.032;8.310;2023-01-01T07:18:23;5.10;99.90
46085;DHT22;31823;47.032;8.310;2023-01-01T07:20:59;5.00;99.90
46085;DHT22;31823;47.032;8.310;2023-01-01T07:23:27;5.10;99.90
46085;DHT22;31823;47.032;8.310;2023-01-01T07:25:53;5.10;99.90
46085;DHT22;31823;47.032;8.310;2023-01-01T07:28:20;5.20;99.90
46085;DHT22;31823;47.032;8.310;2023-01-01T07:30:46;5.30;99.90
46085;DHT22;31823;47.032;8.310;2023-01-01T07:33:14;5.20;99.90
46085;DHT22;31823;47.032;8.310;2023-01-01T07:35:40;5.20;99.90
46085;DHT22;31823;47.032;8.310;2023-01-01T07:38:06;5.20;99.90
46085;DHT22;31823;47.032;8.310;2023-01-01T07:40:32;5.20;99.90
46085;DHT22;31823;47.032;8.310;2023-01-01T07:42:58;5.30;99.90
46085;DHT22;31823;47.032;8.310;2023-01-01T07:45:24;5.30;99.90
46085;DHT22;31823;47.032;8.310;2023-01-01T07:47:53;5.30;99.90
46085;DHT22;31823;47.032;8.310;2023-01-01T07:50:20;5.30;99.90
46085;DHT22;31823;47.032;8.310;2023-01-01T07:52:46;5.40;99.90
46085;DHT22;31823;47.032;8.310;2023-01-01T07:55:12;5.50;99.90
46085;DHT22;31823;47.032;8.310;2023-01-01T07:57:39;5.60;99.90
46085;DHT22;31823;47.032;8.310;2023-01-01T08:00:07;5.60;99.90
46085;DHT22;31823;47.032;8.310;2023-01-01T08:02:32;5.60;99.90
46085;DHT22;31823;47.032;8.310;2023-01-01T08:04:58;5.60;99.90
46085;DHT22;31823;47.032;8.310;2023-01-01T08:07:23;5.50;99.90
46085;DHT22;31823;47.032;8.310;2023-01-01T08:09:49;5.40;99.90
46085;DHT22;31823;47.032;8.310;2023-01-01T08:12:14;5.20;99.90
46085;DHT22;31823;47.032;8.310;2023-01-01T08:14:40;5.10;99.90
46085;DHT22;31823;47.032;8.310;2023-01-01T08:17:06;5.20;99.90
46085;DHT22;31823;47.032;8.310;2023-01-01T08:19:31;5.30;99.90
46085;DHT22;31823;47.032;8.310;2023-01-01T08:21:57;5.60;99.90
46085;DHT22;31823;47.032;8.310;2023-01-01T08:24:22;5.60;99.90
46085;DHT22;31823;47.032;8.310;2023-01-01T08:26:48;5.70;99.90
46085;DHT22;31823;47.032;8.310;2023-01-01T08:29:19;5.80;99.90
46085;DHT22;31823;47.032;8.310;2023-01-01T08:31:45;5.90;99.90
46085;DHT22;31823;47.032;8.310;2023-01-01T08:34:11;5.90;99.90
46085;DHT22;31823;47.032;8.310;2023-01-01T08:36:37;5.90;99.90
46085;DHT22;31823;47.032;8.310;2023-01-01T08:39:05;6.00;99.90
46085;DHT22;31823;47.032;8.310;2023-01-01T08:41:31;6.00;99.90
46085;DHT22;31823;47.032;8.310;2023-01-01T08:43:57;6.10;99.90
46085;DHT22;31823;47.032;8.310;2023-01-01T08:46:22;6.10;99.90
46085;DHT22;31823;47.032;8.310;2023-01-01T08:48:48;6.20;99.90
46085;DHT22;31823;47.032;8.310;2023-01-01T08:51:14;6.30;99.90
46085;DHT22;31823;47.032;8.310;2023-01-01T08:53:39;6.30;99.90
46085;DHT22;31823;47.032;8.310;2023-01-01T08:56:07;6.30;99.90
46085;DHT22;31823;47.032;8.310;2023-01-01T08:58:35;6.30;99.90
46085;DHT22;31823;47.032;8.310;2023-01-01T09:01:00;6.30;99.90
46085;DHT22;31823;47.032;8.310;2023-01-01T09:03:26;6.30;99.90
46085;DHT22;31823;47.032;8.310;2023-01-01T09:05:52;6.40;99.90
46085;DHT22;31823;47.032;8.310;2023-01-01T09:08:19;6.50;99.90
46085;DHT22;31823;47.032;8.310;2023-01-01T09:10:44;6.50;99.90
46085;DHT22;31823;47.032;8.310;2023-01-01T09:13:12;6.50;99.90
46085;DHT22;31823;47.032;8.310;2023-01-01T09:15:38;6.50;99.90
46085;DHT22;31823;47.032;8.310;2023-01-01T09:18:04;6.60;99.90
46085;DHT22;31823;47.032;8.310;2023-01-01T09:20:29;6.70;99.90
46085;DHT22;31823;47.032;8.310;2023-01-01T09:22:55;6.70;99.90
46085;DHT22;31823;47.032;8.310;2023-01-01T09:25:21;6.70;99.90
46085;DHT22;31823;47.032;8.310;2023-01-01T09:27:46;6.60;99.90
46085;DHT22;31823;47.032;8.310;2023-01-01T09:30:12;6.60;99.90
46085;DHT22;31823;47.032;8.310;2023-01-01T09:32:38;6.90;99.90
46085;DHT22;31823;47.032;8.310;2023-01-01T09:35:04;6.90;99.90
46085;DHT22;31823;47.032;8.310;2023-01-01T09:37:29;6.90;99.90
46085;DHT22;31823;47.032;8.310;2023-01-01T09:39:56;7.10;99.90
46085;DHT22;31823;47.032;8.310;2023-01-01T09:47:43;8.20;99.90
46085;DHT22;31823;47.032;8.310;2023-01-01T09:50:20;8.50;99.90
46085;DHT22;31823;47.032;8.310;2023-01-01T09:52:51;8.60;99.90
46085;DHT22;31823;47.032;8.310;2023-01-01T09:55:24;8.50;99.90
46085;DHT22;31823;47.032;8.310;2023-01-01T09:57:50;8.70;99.90
46085;DHT22;31823;47.032;8.310;2023-01-01T10:00:17;9.00;99.90
46085;DHT22;31823;47.032;8.310;2023-01-01T10:05:55;8.90;99.90
46085;DHT22;31823;47.032;8.310;2023-01-01T10:13:45;8.40;99.90
46085;DHT22;31823;47.032;8.310;2023-01-01T10:20:36;8.30;99.90
46085;DHT22;31823;47.032;8.310;2023-01-01T10:22:35;8.40;99.90
46085;DHT22;31823;47.032;8.310;2023-01-01T10:25:24;8.70;99.90
46085;DHT22;31823;47.032;8.310;2023-01-01T10:28:04;8.80;99.90
46085;DHT22;31823;47.032;8.310;2023-01-01T10:30:31;8.90;99.90
46085;DHT22;31823;47.032;8.310;2023-01-01T10:32:57;9.10;99.90
46085;DHT22;31823;47.032;8.310;2023-01-01T10:35:39;9.40;99.90
46085;DHT22;31823;47.032;8.310;2023-01-01T10:38:06;9.80;99.90
46085;DHT22;31823;47.032;8.310;2023-01-01T10:40:32;9.90;99.90
46085;DHT22;31823;47.032;8.310;2023-01-01T10:43:00;10.60;99.90
46085;DHT22;31823;47.032;8.310;2023-01-01T10:48:17;13.10;99.90
46085;DHT22;31823;47.032;8.310;2023-01-01T10:50:52;12.70;99.90
46085;DHT22;31823;47.032;8.310;2023-01-01T10:56:11;12.40;99.90
46085;DHT22;31823;47.032;8.310;2023-01-01T11:01:08;14.60;99.90
46085;DHT22;31823;47.032;8.310;2023-01-01T11:03:34;15.50;99.90
46085;DHT22;31823;47.032;8.310;2023-01-01T11:08:40;14.10;99.90
46085;DHT22;31823;47.032;8.310;2023-01-01T11:11:25;14.20;99.90
46085;DHT22;31823;47.032;8.310;2023-01-01T11:13:53;14.30;99.90
46085;DHT22;31823;47.032;8.310;2023-01-01T11:16:19;15.10;99.90
46085;DHT22;31823;47.032;8.310;2023-01-01T11:18:48;14.70;99.90
46085;DHT22;31823;47.032;8.310;2023-01-01T11:21:22;13.40;99.90
46085;DHT22;31823;47.032;8.310;2023-01-01T11:23:50;13.50;99.90
46085;DHT22;31823;47.032;8.310;2023-01-01T11:31:43;12.40;99.90
46085;DHT22;31823;47.032;8.310;2023-01-01T11:34:30;11.70;99.90
46085;DHT22;31823;47.032;8.310;2023-01-01T11:39:46;13.20;99.90
46085;DHT22;31823;47.032;8.310;2023-01-01T11:42:20;12.30;99.90
46085;DHT22;31823;47.032;8.310;2023-01-01T11:44:53;11.90;99.90
46085;DHT22;31823;47.032;8.310;2023-01-01T11:52:51;13.80;99.90
46085;DHT22;31823;47.032;8.310;2023-01-01T11:58:14;14.00;99.90
46085;DHT22;31823;47.032;8.310;2023-01-01T12:00:42;13.10;99.90
46085;DHT22;31823;47.032;8.310;2023-01-01T12:06:05;14.10;99.90
46085;DHT22;31823;47.032;8.310;2023-01-01T12:08:54;13.60;99.90
46085;DHT22;31823;47.032;8.310;2023-01-01T12:11:32;12.90;99.90
46085;DHT22;31823;47.032;8.310;2023-01-01T12:14:07;13.00;99.90
46085;DHT22;31823;47.032;8.310;2023-01-01T12:16:57;14.10;99.90
46085;DHT22;31823;47.032;8.310;2023-01-01T12:20:18;13.90;99.90
46085;DHT22;31823;47.032;8.310;2023-01-01T12:22:18;13.20;99.90
46085;DHT22;31823;47.032;8.310;2023-01-01T12:24:45;12.10;99.90
46085;DHT22;31823;47.032;8.310;2023-01-01T12:30:22;11.40;99.90
46085;DHT22;31823;47.032;8.310;2023-01-01T12:33:26;12.10;99.90
46085;DHT22;31823;47.032;8.310;2023-01-01T12:36:02;11.80;99.90
46085;DHT22;31823;47.032;8.310;2023-01-01T12:38:59;11.50;99.90
46085;DHT22;31823;47.032;8.310;2023-01-01T12:46:44;11.40;99.90
46085;DHT22;31823;47.032;8.310;2023-01-01T12:52:00;11.70;99.90
46085;DHT22;31823;47.032;8.310;2023-01-01T12:57:08;12.00;99.90
46085;DHT22;31823;47.032;8.310;2023-01-01T12:59:37;11.90;99.90
46085;DHT22;31823;47.032;8.310;2023-01-01T13:02:37;11.90;99.90
46085;DHT22;31823;47.032;8.310;2023-01-01T13:05:19;11.90;99.90
46085;DHT22;31823;47.032;8.310;2023-01-01T13:07:52;11.80;99.90
46085;DHT22;31823;47.032;8.310;2023-01-01T13:12:56;12.40;99.90
46085;DHT22;31823;47.032;8.310;2023-01-01T13:15:45;12.40;99.90
46085;DHT22;31823;47.032;8.310;2023-01-01T13:21:05;12.50;99.90
46085;DHT22;31823;47.032;8.310;2023-01-01T13:39:57;17.30;99.90
46085;DHT22;31823;47.032;8.310;2023-01-01T13:48:53;18.30;99.90
46085;DHT22;31823;47.032;8.310;2023-01-01T14:03:05;13.40;99.90
46085;DHT22;31823;47.032;8.310;2023-01-01T14:07:58;12.30;99.90
46085;DHT22;31823;47.032;8.310;2023-01-01T14:12:51;11.70;99.90
46085;DHT22;31823;47.032;8.310;2023-01-01T14:15:28;11.80;99.90
46085;DHT22;31823;47.032;8.310;2023-01-01T14:17:56;11.70;99.90
46085;DHT22;31823;47.032;8.310;2023-01-01T14:21:01;11.20;99.90
46085;DHT22;31823;47.032;8.310;2023-01-01T14:23:35;11.00;99.90
46085;DHT22;31823;47.032;8.310;2023-01-01T14:26:11;10.90;99.90
46085;DHT22;31823;47.032;8.310;2023-01-01T14:28:37;10.70;99.90
46085;DHT22;31823;47.032;8.310;2023-01-01T14:31:08;10.60;99.90
46085;DHT22;31823;47.032;8.310;2023-01-01T14:33:36;10.50;99.90
46085;DHT22;31823;47.032;8.310;2023-01-01T14:36:04;10.40;99.90
46085;DHT22;31823;47.032;8.310;2023-01-01T14:38:34;10.20;99.90
46085;DHT22;31823;47.032;8.310;2023-01-01T14:41:33;10.00;99.90
46085;DHT22;31823;47.032;8.310;2023-01-01T14:44:09;10.00;99.90
46085;DHT22;31823;47.032;8.310;2023-01-01T14:46:48;9.90;99.90
46085;DHT22;31823;47.032;8.310;2023-01-01T14:49:29;9.90;99.90
46085;DHT22;31823;47.032;8.310;2023-01-01T14:52:22;9.70;99.90
46085;DHT22;31823;47.032;8.310;2023-01-01T14:54:50;9.70;99.90
46085;DHT22;31823;47.032;8.310;2023-01-01T14:57:19;9.60;99.90
46085;DHT22;31823;47.032;8.310;2023-01-01T14:59:49;9.60;99.90
46085;DHT22;31823;47.032;8.310;2023-01-01T15:02:30;9.70;99.90
46085;DHT22;31823;47.032;8.310;2023-01-01T15:05:27;9.60;99.90
46085;DHT22;31823;47.032;8.310;2023-01-01T15:07:58;9.40;99.90
46085;DHT22;31823;47.032;8.310;2023-01-01T15:10:28;9.30;99.90
46085;DHT22;31823;47.032;8.310;2023-01-01T15:12:55;9.20;99.90
46085;DHT22;31823;47.032;8.310;2023-01-01T15:15:38;9.20;99.90
46085;DHT22;31823;47.032;8.310;2023-01-01T15:18:05;9.10;99.90
46085;DHT22;31823;47.032;8.310;2023-01-01T15:20:32;9.10;99.90
46085;DHT22;31823;47.032;8.310;2023-01-01T15:22:58;8.90;99.90
46085;DHT22;31823;47.032;8.310;2023-01-01T15:25:24;8.90;99.90
46085;DHT22;31823;47.032;8.310;2023-01-01T15:27:51;8.80;99.90
46085;DHT22;31823;47.032;8.310;2023-01-01T15:30:30;8.70;99.90
46085;DHT22;31823;47.032;8.310;2023-01-01T15:33:08;8.70;99.90
46085;DHT22;31823;47.032;8.310;2023-01-01T15:35:38;8.60;99.90
46085;DHT22;31823;47.032;8.310;2023-01-01T15:38:23;8.60;99.90
46085;DHT22;31823;47.032;8.310;2023-01-01T15:40:49;8.50;99.90
46085;DHT22;31823;47.032;8.310;2023-01-01T15:43:26;8.40;99.90
46085;DHT22;31823;47.032;8.310;2023-01-01T15:46:20;8.40;99.90
46085;DHT22;31823;47.032;8.310;2023-01-01T15:48:49;8.30;99.90
46085;DHT22;31823;47.032;8.310;2023-01-01T15:51:17;8.10;99.90
46085;DHT22;31823;47.032;8.310;2023-01-01T15:56:12;8.10;99.90
46085;DHT22;31823;47.032;8.310;2023-01-01T15:58:54;8.10;99.90
46085;DHT22;31823;47.032;8.310;2023-01-01T16:01:23;8.00;99.90
46085;DHT22;31823;47.032;8.310;2023-01-01T16:03:51;8.00;99.90
46085;DHT22;31823;47.032;8.310;2023-01-01T16:06:20;8.10;99.90
46085;DHT22;31823;47.032;8.310;2023-01-01T16:08:46;7.90;99.90
46085;DHT22;31823;47.032;8.310;2023-01-01T16:11:12;8.00;99.90
46085;DHT22;31823;47.032;8.310;2023-01-01T16:13:39;8.00;99.90
46085;DHT22;31823;47.032;8.310;2023-01-01T16:16:38;7.90;99.90
46085;DHT22;31823;47.032;8.310;2023-01-01T16:19:03;8.00;99.90
46085;DHT22;31823;47.032;8.310;2023-01-01T16:21:30;7.90;99.90
46085;DHT22;31823;47.032;8.310;2023-01-01T16:23:59;7.90;99.90
46085;DHT22;31823;47.032;8.310;2023-01-01T16:26:24;7.80;99.90
46085;DHT22;31823;47.032;8.310;2023-01-01T16:28:50;7.80;99.90
46085;DHT22;31823;47.032;8.310;2023-01-01T16:31:23;7.70;99.90
46085;DHT22;31823;47.032;8.310;2023-01-01T16:33:55;7.60;99.90
46085;DHT22;31823;47.032;8.310;2023-01-01T16:36:22;7.50;99.90
46085;DHT22;31823;47.032;8.310;2023-01-01T16:38:47;7.50;99.90
46085;DHT22;31823;47.032;8.310;2023-01-01T16:41:15;7.50;99.90
46085;DHT22;31823;47.032;8.310;2023-01-01T16:43:42;7.40;99.90
46085;DHT22;31823;47.032;8.310;2023-01-01T16:46:09;7.40;99.90
46085;DHT22;31823;47.032;8.310;2023-01-01T16:48:37;7.40;99.90
46085;DHT22;31823;47.032;8.310;2023-01-01T16:51:04;7.30;99.90
46085;DHT22;31823;47.032;8.310;2023-01-01T16:53:30;7.20;99.90
46085;DHT22;31823;47.032;8.310;2023-01-01T16:55:56;7.20;99.90
46085;DHT22;31823;47.032;8.310;2023-01-01T16:58:22;7.10;99.90
46085;DHT22;31823;47.032;8.310;2023-01-01T17:00:47;7.10;99.90
46085;DHT22;31823;47.032;8.310;2023-01-01T17:03:13;7.10;99.90
46085;DHT22;31823;47.032;8.310;2023-01-01T17:05:39;7.10;99.90
46085;DHT22;31823;47.032;8.310;2023-01-01T17:08:05;7.10;99.90
46085;DHT22;31823;47.032;8.310;2023-01-01T17:10:31;7.10;99.90
46085;DHT22;31823;47.032;8.310;2023-01-01T17:12:57;7.10;99.90
46085;DHT22;31823;47.032;8.310;2023-01-01T17:15:27;7.00;99.90
46085;DHT22;31823;47.032;8.310;2023-01-01T17:17:53;7.00;99.90
46085;DHT22;31823;47.032;8.310;2023-01-01T17:20:18;7.00;99.90
46085;DHT22;31823;47.032;8.310;2023-01-01T17:22:44;7.00;99.90
46085;DHT22;31823;47.032;8.310;2023-01-01T17:25:09;7.00;99.90
46085;DHT22;31823;47.032;8.310;2023-01-01T17:27:35;6.90;99.90
46085;DHT22;31823;47.032;8.310;2023-01-01T17:30:01;6.90;99.90
46085;DHT22;31823;47.032;8.310;2023-01-01T17:32:27;7.00;99.90
46085;DHT22;31823;47.032;8.310;2023-01-01T17:34:53;7.00;99.90
46085;DHT22;31823;47.032;8.310;2023-01-01T17:37:18;7.10;99.90
46085;DHT22;31823;47.032;8.310;2023-01-01T17:39:44;7.00;99.90
46085;DHT22;31823;47.032;8.310;2023-01-01T17:42:10;7.10;99.90
46085;DHT22;31823;47.032;8.310;2023-01-01T17:44:35;7.00;99.90
46085;DHT22;31823;47.032;8.310;2023-01-01T17:47:01;7.10;99.90
46085;DHT22;31823;47.032;8.310;2023-01-01T17:49:26;7.20;99.90
46085;DHT22;31823;47.032;8.310;2023-01-01T17:51:52;7.20;99.90
46085;DHT22;31823;47.032;8.310;2023-01-01T17:54:17;7.10;99.90
46085;DHT22;31823;47.032;8.310;2023-01-01T17:56:43;7.10;99.90
46085;DHT22;31823;47.032;8.310;2023-01-01T17:59:09;7.10;99.90
46085;DHT22;31823;47.032;8.310;2023-01-01T18:01:34;7.10;99.90
46085;DHT22;31823;47.032;8.310;2023-01-01T18:04:03;7.10;99.90
46085;DHT22;31823;47.032;8.310;2023-01-01T18:06:30;7.20;99.90
46085;DHT22;31823;47.032;8.310;2023-01-01T18:08:57;7.40;99.90
46085;DHT22;31823;47.032;8.310;2023-01-01T18:11:25;7.30;99.90
46085;DHT22;31823;47.032;8.310;2023-01-01T18:13:53;7.30;99.90
46085;DHT22;31823;47.032;8.310;2023-01-01T18:16:18;7.20;99.90
46085;DHT22;31823;47.032;8.310;2023-01-01T18:18:44;7.20;99.90
46085;DHT22;31823;47.032;8.310;2023-01-01T18:21:13;7.30;99.90
46085;DHT22;31823;47.032;8.310;2023-01-01T18:23:39;7.50;99.90
46085;DHT22;31823;47.032;8.310;2023-01-01T18:26:07;7.60;99.90